Time;durP1;ratioP1;P1;durP2;ratioP2;P2;SDS_P1;SDS_P2;PMS_P1;PMS_P2;Temp;Humidity;BMP_temperature;BMP_pressure;BME280_temperature;BME280_humidity;BME280_pressure;Samples;Min_cycle;Max_cycle;Signal;HPM_P1;HPM_P2
2022/11/05 00:10:18;;;;;;;1.95;0.20;;;19.60;48.40;;;;;;5090839;28;20048;-54
2022/11/05 00:18:16;;;;;;;1.88;0.47;;;19.60;48.30;;;;;;5108791;28;20046;-56
2022/11/05 00:20:43;;;;;;;1.75;0.40;;;19.60;48.40;;;;;;5109142;28;20043;-55
2022/11/05 00:25:56;;;;;;;2.80;0.40;;;19.60;48.50;;;;;;5109491;28;20087;-55
2022/11/05 00:28:23;;;;;;;3.80;0.70;;;19.60;48.60;;;;;;5110176;28;20046;-53
2022/11/05 00:30:52;;;;;;;3.50;0.45;;;19.70;48.60;;;;;;5109300;28;20520;-58
2022/11/05 00:33:20;;;;;;;1.42;0.57;;;19.70;48.50;;;;;;5108419;28;20046;-58
2022/11/05 00:35:47;;;;;;;0.70;0.30;;;19.70;48.50;;;;;;5110852;27;20071;-56
2022/11/05 00:38:14;;;;;;;4.68;0.50;;;19.70;48.50;;;;;;5107633;28;20119;-57
2022/11/05 00:40:41;;;;;;;0.63;0.60;;;19.70;48.50;;;;;;5109632;28;20039;-57
2022/11/05 00:45:54;;;;;;;2.08;0.30;;;19.70;48.50;;;;;;5109016;28;20039;-58
2022/11/05 00:51:06;;;;;;;2.00;0.32;;;19.70;48.40;;;;;;5106590;28;20047;-57
2022/11/05 00:53:34;;;;;;;6.60;0.38;;;19.70;48.40;;;;;;5109302;28;20035;-59
2022/11/05 00:56:01;;;;;;;3.60;0.77;;;19.70;48.40;;;;;;5108840;28;20032;-59
2022/11/05 00:58:28;;;;;;;5.80;0.63;;;19.70;48.40;;;;;;5109306;28;20038;-58
2022/11/05 01:00:59;;;;;;;3.67;0.30;;;19.80;48.40;;;;;;5108370;28;20533;-56
2022/11/05 01:03:28;;;;;;;4.72;0.90;;;19.80;48.50;;;;;;5108899;28;20857;-59
2022/11/05 01:05:57;;;;;;;3.10;0.45;;;19.70;48.30;;;;;;5109127;28;20036;-57
2022/11/05 01:08:25;;;;;;;2.33;0.77;;;19.80;48.40;;;;;;5109010;28;20071;-59
2022/11/05 01:10:55;;;;;;;3.28;0.43;;;19.80;48.40;;;;;;5108933;28;20042;-58
2022/11/05 01:13:24;;;;;;;8.13;1.10;;;19.80;48.50;;;;;;5108315;28;20464;-59
2022/11/05 01:15:52;;;;;;;10.25;2.50;;;19.70;48.50;;;;;;5093823;28;20503;-57
2022/11/05 01:18:22;;;;;;;3.17;1.20;;;19.80;48.50;;;;;;5108914;28;20051;-56
2022/11/05 01:20:49;;;;;;;1.65;0.38;;;19.80;48.50;;;;;;5108658;28;20079;-57
2022/11/05 01:23:17;;;;;;;4.00;0.73;;;19.80;48.60;;;;;;5090555;28;20189;-56
2022/11/05 01:25:44;;;;;;;4.07;0.30;;;19.70;48.60;;;;;;5100908;28;20089;-57
2022/11/05 01:28:11;;;;;;;2.58;0.88;;;19.70;48.50;;;;;;5109252;28;20040;-58
2022/11/05 01:30:38;;;;;;;2.03;0.30;;;19.80;48.60;;;;;;5090715;28;20138;-58
2022/11/05 01:33:06;;;;;;;3.65;0.35;;;19.80;48.50;;;;;;5109202;28;20047;-57
2022/11/05 01:35:34;;;;;;;1.88;0.28;;;19.70;48.40;;;;;;5109105;28;20124;-54
2022/11/05 01:38:01;;;;;;;3.65;0.30;;;19.80;48.40;;;;;;5102976;28;20551;-55
2022/11/05 01:40:28;;;;;;;4.72;0.43;;;19.70;48.40;;;;;;5088672;28;20530;-58
2022/11/05 01:42:55;;;;;;;3.40;0.50;;;19.80;48.50;;;;;;5088916;28;20131;-58
2022/11/05 01:45:24;;;;;;;3.20;0.40;;;19.70;48.40;;;;;;5088592;28;20044;-57
2022/11/05 01:48:00;;;;;;;3.63;0.90;;;19.80;48.50;;;;;;5092133;28;20496;-58
2022/11/05 01:50:41;;;;;;;1.95;0.22;;;19.80;48.50;;;;;;5109083;28;20039;-58
2022/11/05 01:53:18;;;;;;;3.35;0.50;;;19.80;48.40;;;;;;5109291;28;20044;-58
2022/11/05 01:55:50;;;;;;;0.65;0.45;;;19.70;48.50;;;;;;5109033;28;20043;-58
2022/11/05 01:58:22;;;;;;;2.22;0.90;;;19.70;48.40;;;;;;5090991;28;20047;-54
2022/11/05 02:00:49;;;;;;;2.50;0.20;;;19.70;48.40;;;;;;5108707;28;20039;-56
2022/11/05 02:03:17;;;;;;;0.28;0.28;;;19.70;48.30;;;;;;5090221;28;20032;-58
2022/11/05 02:05:48;;;;;;;1.83;0.50;;;19.70;48.40;;;;;;5108680;28;20044;-58
2022/11/05 02:08:21;;;;;;;2.90;0.20;;;19.70;48.40;;;;;;5090419;28;20047;-58
2022/11/05 02:10:49;;;;;;;1.75;0.30;;;19.70;48.20;;;;;;5108565;28;20089;-56
2022/11/05 02:13:16;;;;;;;3.83;0.32;;;19.70;48.20;;;;;;5108480;28;20135;-58
2022/11/05 02:15:57;;;;;;;0.68;0.30;;;19.70;48.20;;;;;;5108648;28;20134;-57
2022/11/05 02:18:33;;;;;;;2.78;0.20;;;19.80;48.30;;;;;;5108502;28;20126;-52
2022/11/05 02:21:16;;;;;;;1.90;0.20;;;19.80;48.40;;;;;;5108262;28;20075;-56
2022/11/05 02:24:10;;;;;;;1.60;0.98;;;19.70;48.20;;;;;;5092707;28;20085;-57
2022/11/05 02:27:14;;;;;;;1.52;0.20;;;19.70;48.10;;;;;;5101032;28;20472;-58
2022/11/05 02:30:07;;;;;;;0.43;0.20;;;19.70;48.20;;;;;;5087796;28;20095;-57
2022/11/05 02:33:03;;;;;;;2.47;0.40;;;19.70;48.30;;;;;;5114792;27;20049;-53
2022/11/05 02:35:48;;;;;;;0.90;0.30;;;19.70;48.40;;;;;;5128527;27;20050;-57
2022/11/05 02:38:21;;;;;;;0.88;0.10;;;19.70;48.50;;;;;;5128861;28;20039;-56
2022/11/05 02:40:56;;;;;;;1.02;0.20;;;19.60;48.50;;;;;;5128561;28;20552;-58
2022/11/05 02:43:30;;;;;;;1.17;0.20;;;19.70;48.50;;;;;;5128503;28;20506;-59
2022/11/05 02:46:03;;;;;;;2.80;0.20;;;19.70;48.50;;;;;;5128821;28;20078;-58
2022/11/05 02:48:45;;;;;;;0.90;0.10;;;19.70;48.50;;;;;;5119436;28;20649;-57
2022/11/05 02:51:19;;;;;;;1.35;0.20;;;19.70;48.40;;;;;;5108129;28;20404;-59
2022/11/05 02:53:51;;;;;;;2.70;0.20;;;19.70;49.00;;;;;;5089932;28;20048;-58
2022/11/05 02:56:22;;;;;;;0.52;0.20;;;19.60;48.50;;;;;;5108411;28;20036;-57
2022/11/05 02:58:49;;;;;;;2.63;0.13;;;19.70;48.50;;;;;;5108039;28;20039;-58
2022/11/05 03:01:16;;;;;;;1.63;0.25;;;19.60;48.40;;;;;;5108059;28;20043;-57
2022/11/05 03:03:47;;;;;;;2.10;0.20;;;19.70;48.40;;;;;;5108052;28;20036;-57
2022/11/05 03:06:33;;;;;;;0.55;0.20;;;19.70;48.40;;;;;;5108023;28;20074;-58
2022/11/05 03:09:30;;;;;;;1.17;0.13;;;19.70;48.30;;;;;;5108429;28;20122;-59
2022/11/05 03:12:04;;;;;;;2.85;0.20;;;19.70;48.30;;;;;;5107779;28;20067;-57
2022/11/05 03:14:41;;;;;;;0.63;0.63;;;19.70;48.40;;;;;;5104650;28;20101;-60
2022/11/05 03:17:16;;;;;;;1.02;0.20;;;19.70;48.40;;;;;;5087875;28;20515;-58
2022/11/05 03:19:49;;;;;;;2.40;0.30;;;19.70;48.40;;;;;;5092356;28;20127;-58
2022/11/05 03:22:23;;;;;;;1.58;0.17;;;19.70;48.40;;;;;;5107846;28;20135;-57
2022/11/05 03:24:55;;;;;;;1.23;0.17;;;19.60;48.40;;;;;;5108121;28;20046;-59
2022/11/05 03:27:29;;;;;;;1.77;0.22;;;19.70;48.50;;;;;;5107719;28;20456;-58
2022/11/05 03:30:01;;;;;;;1.10;0.30;;;19.70;48.50;;;;;;5107905;28;20073;-58
2022/11/05 03:32:32;;;;;;;0.75;0.10;;;19.70;48.50;;;;;;5107877;28;20079;-59
2022/11/05 03:35:06;;;;;;;2.25;0.57;;;19.70;48.50;;;;;;5107370;28;20128;-58
2022/11/05 03:37:39;;;;;;;0.95;0.85;;;19.70;48.40;;;;;;5111114;28;20071;-58
2022/11/05 03:40:09;;;;;;;0.98;0.30;;;19.60;48.40;;;;;;5111360;28;20484;-58
2022/11/05 03:42:39;;;;;;;1.52;0.20;;;19.60;48.40;;;;;;5111534;28;20587;-57
2022/11/05 03:45:10;;;;;;;2.38;0.50;;;19.60;48.30;;;;;;5111625;28;20044;-58
2022/11/05 03:47:40;;;;;;;1.13;0.10;;;19.70;48.40;;;;;;5111426;28;20077;-58
2022/11/05 03:50:17;;;;;;;1.88;0.13;;;19.70;48.30;;;;;;5111306;28;20461;-57
2022/11/05 03:52:51;;;;;;;1.58;0.40;;;19.60;48.30;;;;;;5111035;28;20139;-57
2022/11/05 03:55:18;;;;;;;2.72;0.25;;;19.70;48.40;;;;;;5111135;28;20105;-55
2022/11/05 03:57:51;;;;;;;0.32;0.22;;;19.60;48.30;;;;;;5111215;28;20098;-57
2022/11/05 04:00:18;;;;;;;1.40;0.70;;;19.70;48.30;;;;;;5111153;28;20070;-60
2022/11/05 04:02:45;;;;;;;2.40;0.55;;;19.70;48.40;;;;;;5110524;28;20595;-59
2022/11/05 04:05:13;;;;;;;0.57;0.20;;;19.60;48.20;;;;;;5111136;28;20046;-60
2022/11/05 04:13:26;;;;;;;0.80;0.10;;;19.70;48.20;;;;;;5111063;28;20092;-60
2022/11/05 04:18:39;;;;;;;1.98;0.47;;;19.60;48.20;;;;;;5110672;28;20477;-57
2022/11/05 04:24:09;;;;;;;0.93;0.10;;;19.70;48.20;;;;;;5110441;28;20143;-54
2022/11/05 04:26:37;;;;;;;0.77;0.10;;;19.70;48.20;;;;;;5128473;27;20196;-58
2022/11/05 04:31:49;;;;;;;5.68;0.35;;;19.70;48.20;;;;;;5130568;27;20043;-58
2022/11/05 04:34:17;;;;;;;1.23;0.20;;;19.70;48.20;;;;;;5109768;28;20036;-57
2022/11/05 04:36:48;;;;;;;1.95;0.10;;;19.70;48.20;;;;;;5110349;28;20039;-58
2022/11/05 04:39:16;;;;;;;0.30;0.10;;;19.70;48.20;;;;;;5110388;28;20043;-56
2022/11/05 04:41:45;;;;;;;2.13;0.10;;;19.70;48.10;;;;;;5110414;28;20095;-56
2022/11/05 04:44:12;;;;;;;1.70;0.13;;;19.70;48.10;;;;;;5110395;28;20043;-57
2022/11/05 04:46:39;;;;;;;2.90;0.20;;;19.70;48.10;;;;;;5092185;28;20138;-57
2022/11/05 04:49:06;;;;;;;1.10;0.10;;;19.70;48.10;;;;;;5109728;28;20051;-57
2022/11/05 04:51:33;;;;;;;2.28;0.10;;;19.70;48.70;;;;;;5096984;28;20043;-56
2022/11/05 04:54:02;;;;;;;0.57;0.32;;;19.70;48.20;;;;;;5110056;28;20488;-56
2022/11/05 04:56:29;;;;;;;2.60;0.10;;;19.70;48.10;;;;;;5092453;28;20391;-56
2022/11/05 04:58:56;;;;;;;0.82;0.20;;;19.70;48.10;;;;;;5110131;28;20040;-58
2022/11/05 05:01:24;;;;;;;2.75;0.28;;;19.70;48.10;;;;;;5109906;28;20042;-57
2022/11/05 05:03:52;;;;;;;1.35;0.20;;;19.70;48.10;;;;;;5110055;28;20036;-56
2022/11/05 05:06:20;;;;;;;1.80;0.20;;;19.70;48.10;;;;;;5109969;28;20035;-57
2022/11/05 05:08:49;;;;;;;3.35;0.20;;;19.70;48.10;;;;;;5109918;28;20050;-57
2022/11/05 05:11:19;;;;;;;0.20;0.10;;;19.70;48.10;;;;;;5110040;28;20504;-58
2022/11/05 05:13:46;;;;;;;1.05;0.10;;;19.70;48.10;;;;;;5109716;28;20579;-57
2022/11/05 05:16:19;;;;;;;3.90;0.45;;;19.70;48.00;;;;;;5109977;28;20496;-58
2022/11/05 05:18:46;;;;;;;0.80;0.00;;;19.70;48.10;;;;;;5106840;28;20039;-57
2022/11/05 05:23:58;;;;;;;4.35;0.20;;;19.70;48.10;;;;;;5099443;28;20042;-56
2022/11/05 05:26:26;;;;;;;5.78;0.30;;;19.70;48.20;;;;;;5088282;28;20040;-57
2022/11/05 05:28:54;;;;;;;1.42;0.70;;;19.70;48.20;;;;;;5098363;28;20039;-55
2022/11/05 05:31:21;;;;;;;2.92;0.38;;;19.80;48.20;;;;;;5097781;28;20039;-58
2022/11/05 05:33:48;;;;;;;1.55;0.15;;;19.70;48.10;;;;;;5098745;28;20116;-59
2022/11/05 05:36:15;;;;;;;2.47;0.82;;;19.70;48.10;;;;;;5093143;28;20044;-58
2022/11/05 05:38:42;;;;;;;2.05;0.20;;;19.70;48.10;;;;;;5088711;28;20067;-59
2022/11/05 05:41:09;;;;;;;1.95;0.20;;;19.70;48.20;;;;;;5088683;28;20043;-58
2022/11/05 05:43:38;;;;;;;4.57;0.20;;;19.70;48.20;;;;;;5088868;28;20071;-58
2022/11/05 05:46:06;;;;;;;0.65;0.17;;;19.80;48.20;;;;;;5088710;28;20044;-60
2022/11/05 05:48:34;;;;;;;1.27;0.20;;;19.70;48.10;;;;;;5098215;28;20040;-58
2022/11/05 05:51:01;;;;;;;0.40;0.32;;;19.70;48.10;;;;;;5108285;28;20043;-58
2022/11/05 05:53:28;;;;;;;1.48;0.20;;;19.70;48.10;;;;;;5090663;28;20585;-58
2022/11/05 05:55:56;;;;;;;2.15;0.13;;;19.70;48.00;;;;;;5108819;28;20036;-57
2022/11/05 05:58:25;;;;;;;2.83;0.10;;;19.70;48.10;;;;;;5108923;28;20039;-54
2022/11/05 06:00:54;;;;;;;1.40;0.20;;;19.70;48.00;;;;;;5108904;28;20474;-57
2022/11/05 06:03:21;;;;;;;0.28;0.10;;;19.70;48.00;;;;;;5108416;28;20075;-58
2022/11/05 06:05:48;;;;;;;1.15;0.13;;;19.70;48.10;;;;;;5108641;28;20055;-57
2022/11/05 06:08:15;;;;;;;0.80;0.20;;;19.70;48.00;;;;;;5108576;28;20062;-59
2022/11/05 06:10:42;;;;;;;0.80;0.10;;;19.70;48.10;;;;;;5108788;28;20046;-56
2022/11/05 06:13:09;;;;;;;1.15;0.20;;;19.70;48.10;;;;;;5108709;28;20047;-57
2022/11/05 06:15:36;;;;;;;1.10;0.10;;;19.70;48.10;;;;;;5108777;28;20521;-56
2022/11/05 06:18:05;;;;;;;2.92;1.30;;;19.70;48.10;;;;;;5108469;28;20143;-61
2022/11/05 06:20:32;;;;;;;1.35;0.20;;;19.70;48.10;;;;;;5107992;28;20039;-61
2022/11/05 06:22:59;;;;;;;1.02;0.20;;;19.70;48.00;;;;;;5108239;28;20047;-58
2022/11/05 06:25:26;;;;;;;0.55;0.10;;;19.70;48.00;;;;;;5108595;28;20749;-57
2022/11/05 06:27:54;;;;;;;2.03;0.10;;;19.70;48.10;;;;;;5109758;27;20040;-58
2022/11/05 06:30:22;;;;;;;1.63;0.30;;;19.70;48.10;;;;;;5092142;28;20572;-57
2022/11/05 06:32:49;;;;;;;0.40;0.20;;;19.70;48.10;;;;;;5108417;28;20051;-56
2022/11/05 06:35:18;;;;;;;0.88;0.20;;;19.70;48.20;;;;;;5107939;28;20046;-58
2022/11/05 06:37:45;;;;;;;2.63;0.10;;;19.70;48.20;;;;;;5108702;28;20074;-58
2022/11/05 06:40:12;;;;;;;1.48;0.20;;;19.70;48.30;;;;;;5108508;28;20103;-58
2022/11/05 06:42:39;;;;;;;5.75;0.30;;;19.70;48.20;;;;;;5108454;28;20063;-57
2022/11/05 06:45:07;;;;;;;2.33;0.10;;;19.70;48.20;;;;;;5108508;28;20495;-57
2022/11/05 06:47:34;;;;;;;0.90;0.10;;;19.70;48.20;;;;;;5108338;28;20050;-58
2022/11/05 06:50:01;;;;;;;1.50;0.10;;;19.70;48.20;;;;;;5107857;28;20040;-57
2022/11/05 06:52:30;;;;;;;0.15;0.10;;;19.70;48.20;;;;;;5108126;28;20079;-57
2022/11/05 06:54:57;;;;;;;0.85;0.20;;;19.70;48.20;;;;;;5107918;28;20039;-57
2022/11/05 06:57:25;;;;;;;0.20;0.10;;;19.70;48.10;;;;;;5108009;28;20051;-58
2022/11/05 06:59:52;;;;;;;1.05;0.20;;;19.60;47.90;;;;;;5108418;28;20036;-57
2022/11/05 07:02:19;;;;;;;1.75;0.10;;;19.70;48.00;;;;;;5108086;28;20511;-54
2022/11/05 07:04:46;;;;;;;0.43;0.10;;;19.70;48.00;;;;;;5107537;28;20036;-57
2022/11/05 07:07:13;;;;;;;0.52;0.10;;;19.60;47.80;;;;;;5107887;28;20120;-57
2022/11/05 07:09:42;;;;;;;0.50;0.10;;;19.70;47.90;;;;;;5107830;28;20047;-57
2022/11/05 07:12:09;;;;;;;1.10;0.10;;;19.60;47.80;;;;;;5110856;28;20048;-54
2022/11/05 07:14:36;;;;;;;1.00;0.10;;;19.60;47.90;;;;;;5112060;28;20046;-56
2022/11/05 07:17:03;;;;;;;0.13;0.10;;;19.60;48.00;;;;;;5110951;28;20138;-56
2022/11/05 07:19:30;;;;;;;7.95;0.15;;;19.60;48.00;;;;;;5094269;28;20035;-55
2022/11/05 07:21:57;;;;;;;1.38;0.13;;;19.60;48.10;;;;;;5111541;28;20044;-53
2022/11/05 07:24:24;;;;;;;0.50;0.10;;;19.60;48.20;;;;;;5111811;28;20032;-54
2022/11/05 07:26:52;;;;;;;2.28;0.10;;;19.60;48.10;;;;;;5111631;28;20122;-56
2022/11/05 07:29:19;;;;;;;0.75;0.38;;;19.60;48.20;;;;;;5111812;28;20561;-55
2022/11/05 07:31:46;;;;;;;0.82;0.10;;;19.60;48.30;;;;;;5111750;28;20040;-56
2022/11/05 07:34:14;;;;;;;0.73;0.10;;;19.60;48.30;;;;;;5111332;28;20040;-56
2022/11/05 07:36:41;;;;;;;0.35;0.10;;;19.60;48.40;;;;;;5111573;28;20036;-56
2022/11/05 07:39:08;;;;;;;1.90;0.17;;;19.60;48.30;;;;;;5111047;28;20035;-55
2022/11/05 07:41:35;;;;;;;1.75;0.10;;;19.60;48.20;;;;;;5111134;28;20512;-53
2022/11/05 07:44:04;;;;;;;0.32;0.10;;;19.60;48.20;;;;;;5111276;28;20040;-57
2022/11/05 07:46:31;;;;;;;4.53;0.20;;;19.60;48.20;;;;;;5111103;28;20050;-57
2022/11/05 07:48:58;;;;;;;0.52;0.10;;;19.60;48.20;;;;;;5111086;28;20048;-56
2022/11/05 07:51:25;;;;;;;2.65;0.10;;;19.50;48.30;;;;;;5110985;28;20048;-56
2022/11/05 07:53:52;;;;;;;2.28;0.30;;;19.50;48.30;;;;;;5111324;28;20063;-57
2022/11/05 07:56:19;;;;;;;4.43;0.10;;;19.60;48.20;;;;;;5111148;28;20121;-56
2022/11/05 07:58:46;;;;;;;0.68;0.10;;;19.60;48.20;;;;;;5111017;28;20040;-56
2022/11/05 08:01:14;;;;;;;1.00;0.10;;;19.60;48.20;;;;;;5110640;28;20118;-57
2022/11/05 08:03:41;;;;;;;1.67;0.10;;;19.60;48.20;;;;;;5110819;28;20054;-56
2022/11/05 08:06:09;;;;;;;0.55;0.10;;;19.60;48.10;;;;;;5104592;28;20052;-56
2022/11/05 08:08:36;;;;;;;1.30;0.10;;;19.60;48.10;;;;;;5090649;28;20036;-56
2022/11/05 08:11:04;;;;;;;1.08;0.10;;;19.60;48.10;;;;;;5090687;28;20123;-57
2022/11/05 08:13:31;;;;;;;0.77;0.20;;;19.60;48.10;;;;;;5090495;28;20036;-56
2022/11/05 08:15:58;;;;;;;1.10;0.10;;;19.60;48.20;;;;;;5089975;28;20048;-59
2022/11/05 08:18:30;;;;;;;0.80;0.10;;;19.60;47.90;;;;;;5090739;28;20040;-57
2022/11/05 08:20:58;;;;;;;2.03;0.10;;;19.60;47.90;;;;;;5105891;28;20508;-56
2022/11/05 08:23:25;;;;;;;0.70;0.10;;;19.60;47.80;;;;;;5112713;27;20530;-57
2022/11/05 08:25:53;;;;;;;3.03;0.10;;;19.60;47.70;;;;;;5110521;28;20074;-57
2022/11/05 08:28:20;;;;;;;0.93;0.10;;;19.70;47.80;;;;;;5110849;28;20043;-58
2022/11/05 08:30:49;;;;;;;0.30;0.20;;;19.60;47.70;;;;;;5110255;28;20548;-57
2022/11/05 08:33:16;;;;;;;2.38;0.20;;;19.60;47.70;;;;;;5110370;28;20356;-56
2022/11/05 08:35:44;;;;;;;1.38;0.10;;;19.70;47.80;;;;;;5109757;28;20089;-57
2022/11/05 08:38:13;;;;;;;0.85;0.35;;;19.70;47.80;;;;;;5110301;28;20036;-58
2022/11/05 08:40:41;;;;;;;0.70;0.43;;;19.70;47.80;;;;;;5110639;28;20051;-58
2022/11/05 08:43:10;;;;;;;1.10;0.20;;;19.70;47.80;;;;;;5110719;28;20513;-56
2022/11/05 08:45:38;;;;;;;1.65;0.15;;;19.70;47.70;;;;;;5110336;28;20040;-57
2022/11/05 08:48:07;;;;;;;0.70;0.10;;;19.70;47.60;;;;;;5091801;28;20586;-57
2022/11/05 08:50:35;;;;;;;1.13;0.10;;;19.70;47.80;;;;;;5110085;28;20135;-57
2022/11/05 08:53:04;;;;;;;3.13;0.20;;;19.70;48.00;;;;;;5110189;28;20039;-55
2022/11/05 08:55:33;;;;;;;0.88;0.20;;;19.70;48.10;;;;;;5094301;28;20040;-57
2022/11/05 08:58:01;;;;;;;1.95;0.40;;;19.70;48.10;;;;;;5089679;28;20817;-57
2022/11/05 09:00:31;;;;;;;0.40;0.20;;;19.80;48.00;;;;;;5089194;28;20040;-57
2022/11/05 09:02:59;;;;;;;2.50;0.10;;;19.80;47.90;;;;;;5089495;28;20039;-56
2022/11/05 09:05:26;;;;;;;0.75;0.20;;;19.80;47.60;;;;;;5089307;28;20087;-55
2022/11/05 09:07:54;;;;;;;1.88;0.10;;;19.80;47.80;;;;;;5089552;28;20040;-57
2022/11/05 09:10:23;;;;;;;0.90;0.47;;;19.80;47.70;;;;;;5089533;28;20040;-56
2022/11/05 09:12:50;;;;;;;0.60;0.10;;;19.90;47.70;;;;;;5089101;28;20052;-56
2022/11/05 09:15:17;;;;;;;1.88;0.10;;;19.90;47.70;;;;;;5089263;28;20118;-58
2022/11/05 09:17:44;;;;;;;0.70;0.10;;;19.90;48.20;;;;;;5089252;28;20032;-55
2022/11/05 09:20:12;;;;;;;3.40;0.57;;;19.90;47.70;;;;;;5097777;28;20039;-57
2022/11/05 09:22:39;;;;;;;1.38;0.10;;;19.90;47.70;;;;;;5109411;28;20097;-56
2022/11/05 09:25:07;;;;;;;0.10;0.10;;;20.00;47.60;;;;;;5109819;28;20128;-56
2022/11/05 09:27:36;;;;;;;0.73;0.10;;;20.00;47.70;;;;;;5091220;28;20051;-58
2022/11/05 09:30:04;;;;;;;1.98;0.10;;;20.00;47.60;;;;;;5109221;28;20068;-58
2022/11/05 09:32:31;;;;;;;2.58;0.10;;;20.00;47.60;;;;;;5109594;28;20505;-57
2022/11/05 09:34:59;;;;;;;1.08;0.10;;;20.00;47.50;;;;;;5108969;28;20127;-58
2022/11/05 09:37:26;;;;;;;0.50;0.10;;;20.00;47.50;;;;;;5109035;28;20093;-56
2022/11/05 09:39:53;;;;;;;0.93;0.00;;;20.10;47.40;;;;;;5091456;28;20142;-56
2022/11/05 09:42:24;;;;;;;1.73;0.10;;;20.10;48.00;;;;;;5107488;28;20039;-56
2022/11/05 09:44:58;;;;;;;0.73;0.10;;;20.10;47.30;;;;;;5088845;28;20040;-57
2022/11/05 09:47:29;;;;;;;0.55;0.55;;;20.10;47.20;;;;;;5088803;28;20047;-56
2022/11/05 09:49:58;;;;;;;2.45;0.00;;;20.20;47.40;;;;;;5095216;28;20564;-49
2022/11/05 09:52:28;;;;;;;1.48;0.08;;;20.20;47.20;;;;;;5108917;28;20122;-57
2022/11/05 09:54:55;;;;;;;1.85;0.20;;;20.20;47.20;;;;;;5109081;28;20085;-58
2022/11/05 09:57:27;;;;;;;0.73;0.10;;;20.20;47.10;;;;;;5108531;28;20138;-57
2022/11/05 09:59:58;;;;;;;1.17;0.03;;;20.20;47.00;;;;;;5108846;28;20071;-58
2022/11/05 10:02:30;;;;;;;2.30;1.25;;;20.20;47.10;;;;;;5108100;28;20049;-56
2022/11/05 10:04:59;;;;;;;0.95;0.20;;;20.30;47.10;;;;;;5107526;28;20059;-56
2022/11/05 10:07:30;;;;;;;0.63;0.10;;;20.30;47.20;;;;;;5089100;28;20063;-57
2022/11/05 10:10:01;;;;;;;0.68;0.45;;;20.30;47.10;;;;;;5107402;28;20044;-59
2022/11/05 10:12:32;;;;;;;0.25;0.10;;;20.30;47.00;;;;;;5107169;28;20122;-58
2022/11/05 10:15:11;;;;;;;2.90;0.10;;;20.30;46.90;;;;;;5107236;28;20032;-59
2022/11/05 10:17:42;;;;;;;0.32;0.10;;;20.40;47.00;;;;;;5107501;28;20034;-58
2022/11/05 10:20:14;;;;;;;2.20;0.10;;;20.40;47.00;;;;;;5107561;28;20126;-58
2022/11/05 10:22:41;;;;;;;2.42;1.15;;;20.40;46.90;;;;;;5104534;28;20032;-58
2022/11/05 10:25:18;;;;;;;3.38;0.10;;;20.40;46.90;;;;;;5107420;28;20035;-58
2022/11/05 10:27:50;;;;;;;0.20;0.10;;;20.50;46.80;;;;;;5087379;28;20036;-57
2022/11/05 10:30:19;;;;;;;2.25;0.90;;;20.50;46.80;;;;;;5108904;28;20035;-59
2022/11/05 10:32:47;;;;;;;1.02;0.17;;;20.50;46.70;;;;;;5105320;28;20591;-59
2022/11/05 10:35:21;;;;;;;5.90;0.10;;;20.50;46.80;;;;;;5107080;28;20077;-57
2022/11/05 10:37:49;;;;;;;1.90;0.10;;;20.50;46.80;;;;;;5107077;28;20472;-59
2022/11/05 10:40:27;;;;;;;2.22;0.20;;;20.50;46.80;;;;;;5106768;28;20039;-58
2022/11/05 10:43:00;;;;;;;1.85;0.10;;;20.50;46.70;;;;;;5106633;28;20815;-59
2022/11/05 10:45:38;;;;;;;3.22;0.10;;;20.50;46.70;;;;;;5107002;28;20452;-58
2022/11/05 10:48:26;;;;;;;2.10;0.10;;;20.60;46.80;;;;;;5098658;28;20044;-56
2022/11/05 10:50:54;;;;;;;0.93;0.65;;;20.60;46.70;;;;;;5110321;28;20093;-59
2022/11/05 10:53:25;;;;;;;0.45;0.03;;;20.60;46.70;;;;;;5111665;28;20511;-58
2022/11/05 10:55:53;;;;;;;1.25;0.10;;;20.60;46.70;;;;;;5104841;28;20047;-56
2022/11/05 10:58:23;;;;;;;1.65;0.10;;;20.60;46.70;;;;;;5108681;28;20427;-56
2022/11/05 11:01:05;;;;;;;5.75;0.10;;;20.60;46.70;;;;;;5103354;28;20052;-56
2022/11/05 11:03:41;;;;;;;2.10;0.20;;;20.70;46.70;;;;;;5110204;28;20035;-58
2022/11/05 11:06:21;;;;;;;1.38;0.15;;;20.70;46.80;;;;;;5109296;28;20096;-54
2022/11/05 11:08:49;;;;;;;0.85;0.10;;;20.70;46.70;;;;;;5108248;28;20127;-56
2022/11/05 11:11:28;;;;;;;1.30;0.20;;;20.70;46.80;;;;;;5108134;28;20036;-58
2022/11/05 11:14:04;;;;;;;2.72;0.55;;;20.70;46.80;;;;;;5109773;28;20043;-59
2022/11/05 11:16:37;;;;;;;3.53;0.20;;;20.70;46.80;;;;;;5110273;28;20046;-59
2022/11/05 11:19:24;;;;;;;1.58;0.10;;;20.70;46.80;;;;;;5105581;28;20450;-58
2022/11/05 11:22:19;;;;;;;1.85;0.10;;;20.70;46.70;;;;;;5105895;28;20725;-57
2022/11/05 11:24:48;;;;;;;1.05;0.95;;;20.70;46.70;;;;;;5108790;28;20036;-60
2022/11/05 11:27:18;;;;;;;0.30;0.15;;;20.80;46.80;;;;;;5110391;28;20077;-58
2022/11/05 11:29:49;;;;;;;0.43;0.10;;;20.80;46.80;;;;;;5103516;28;20425;-59
2022/11/05 11:32:21;;;;;;;1.75;0.10;;;20.80;46.80;;;;;;5104779;28;20864;-57
2022/11/05 11:34:52;;;;;;;1.80;0.47;;;20.80;46.80;;;;;;5103927;28;20040;-58
2022/11/05 11:37:23;;;;;;;0.85;0.10;;;20.80;47.40;;;;;;5103407;28;20036;-60
2022/11/05 11:39:54;;;;;;;0.30;0.10;;;20.80;46.70;;;;;;5104487;28;20144;-60
2022/11/05 11:42:26;;;;;;;0.93;0.10;;;20.80;46.70;;;;;;5103246;28;20119;-59
2022/11/05 11:44:54;;;;;;;1.50;0.10;;;20.80;46.70;;;;;;5102517;28;20126;-60
2022/11/05 11:47:22;;;;;;;0.50;0.20;;;20.80;46.80;;;;;;5110321;28;20042;-56
2022/11/05 11:49:52;;;;;;;8.88;0.40;;;20.90;47.30;;;;;;5110353;28;20048;-52
2022/11/05 11:52:27;;;;;;;4.53;0.80;;;20.90;47.00;;;;;;5107490;28;20067;-61
2022/11/05 11:55:06;;;;;;;0.75;0.10;;;21.00;47.20;;;;;;5106941;28;20587;-61
2022/11/05 11:57:43;;;;;;;3.50;1.63;;;21.00;47.10;;;;;;5106786;28;20108;-61
2022/11/05 12:00:11;;;;;;;0.20;0.03;;;21.00;47.10;;;;;;5109715;28;20481;-62
2022/11/05 12:03:03;;;;;;;3.55;0.80;;;21.10;47.10;;;;;;5109876;28;20077;-60
2022/11/05 12:05:36;;;;;;;3.40;0.15;;;21.10;47.00;;;;;;5109188;28;20078;-62
2022/11/05 12:08:15;;;;;;;0.80;0.10;;;21.10;46.90;;;;;;5109226;28;20571;-63
2022/11/05 12:10:54;;;;;;;0.60;0.13;;;21.20;46.30;;;;;;5103826;28;20039;-60
2022/11/05 12:14:03;;;;;;;8.45;0.28;;;21.10;45.40;;;;;;5092632;28;20052;-53
2022/11/05 12:16:44;;;;;;;1.52;0.10;;;21.10;45.20;;;;;;5110901;28;20047;-58
2022/11/05 12:19:21;;;;;;;3.45;0.20;;;20.90;45.00;;;;;;5110899;28;20732;-53
2022/11/05 12:21:59;;;;;;;9.55;0.43;;;20.80;44.90;;;;;;5114081;27;20040;-59
2022/11/05 12:24:50;;;;;;;4.78;0.20;;;20.80;45.40;;;;;;5101780;28;20464;-62
2022/11/05 12:27:26;;;;;;;3.67;0.20;;;20.60;44.90;;;;;;5102230;28;20508;-60
2022/11/05 12:30:02;;;;;;;6.30;0.30;;;20.40;45.10;;;;;;5102900;28;20530;-62
2022/11/05 12:32:53;;;;;;;1.15;0.30;;;20.20;45.20;;;;;;5108501;28;20058;-63
2022/11/05 12:35:42;;;;;;;4.57;0.25;;;20.00;45.50;;;;;;5088495;28;20663;-66
2022/11/05 12:38:23;;;;;;;2.63;0.17;;;19.80;45.60;;;;;;5104572;28;20133;-59
2022/11/05 12:40:59;;;;;;;15.38;0.70;;;19.70;46.00;;;;;;5096123;28;20048;-60
2022/11/05 12:43:40;;;;;;;3.45;0.22;;;19.60;46.70;;;;;;5101856;28;20035;-58
2022/11/05 12:46:21;;;;;;;2.08;0.30;;;19.60;46.70;;;;;;5105631;28;20039;-60
2022/11/05 12:49:10;;;;;;;5.00;1.20;;;19.60;46.40;;;;;;5108253;28;20036;-63
2022/11/05 12:51:49;;;;;;;2.85;0.75;;;19.60;46.30;;;;;;5106471;28;20127;-63
2022/11/05 12:54:25;;;;;;;2.42;0.10;;;19.60;46.30;;;;;;5107207;28;20818;-63
2022/11/05 12:56:56;;;;;;;2.63;0.10;;;19.50;46.30;;;;;;5105511;28;20694;-59
2022/11/05 12:59:28;;;;;;;3.25;0.22;;;19.50;46.20;;;;;;5107863;28;20051;-61
2022/11/05 13:02:08;;;;;;;1.67;0.20;;;19.40;46.20;;;;;;5106427;28;20039;-59
2022/11/05 13:04:43;;;;;;;1.55;0.10;;;19.30;46.30;;;;;;5090189;28;20035;-61
2022/11/05 13:07:17;;;;;;;5.72;1.85;;;19.30;46.30;;;;;;5105927;28;20109;-60
2022/11/05 13:09:50;;;;;;;1.30;0.30;;;19.20;47.00;;;;;;5106522;28;20051;-55
2022/11/05 13:12:21;;;;;;;10.98;0.43;;;19.20;46.40;;;;;;5109504;28;20040;-55
2022/11/05 13:14:53;;;;;;;4.95;0.95;;;19.10;47.00;;;;;;5109343;28;20071;-56
2022/11/05 13:17:23;;;;;;;3.00;0.20;;;19.10;46.40;;;;;;5091230;28;20141;-54
2022/11/05 13:19:56;;;;;;;3.47;0.70;;;19.00;46.40;;;;;;5109808;28;20443;-56
2022/11/05 13:22:35;;;;;;;0.88;0.10;;;19.00;46.40;;;;;;5109280;28;20032;-54
2022/11/05 13:25:10;;;;;;;2.50;0.20;;;19.00;46.40;;;;;;5103334;28;20065;-57
2022/11/05 13:27:46;;;;;;;1.45;0.10;;;18.90;46.30;;;;;;5100893;28;20040;-54
2022/11/05 13:30:15;;;;;;;;;;;18.90;46.40;;;;;;5108745;28;20075;-53
2022/11/05 13:32:46;;;;;;;2.97;0.20;;;18.80;46.40;;;;;;5108814;28;20381;-53
2022/11/05 13:35:21;;;;;;;2.03;0.10;;;18.70;46.50;;;;;;5107695;28;20561;-54
2022/11/05 13:40:51;;;;;;;2.33;0.10;;;18.60;46.70;;;;;;5105403;28;20047;-55
2022/11/05 13:43:37;;;;;;;5.10;0.68;;;18.70;47.00;;;;;;5109158;28;20499;-58
2022/11/05 13:46:23;;;;;;;3.47;0.30;;;18.60;47.20;;;;;;5106539;28;20131;-58
2022/11/05 13:49:10;;;;;;;1.88;0.25;;;18.60;47.30;;;;;;5101738;28;20472;-50
2022/11/05 13:51:50;;;;;;;3.97;0.30;;;18.50;47.30;;;;;;5097282;28;20124;-61